createdAt,value
2023-05-26T08:52:23.614Z,47.84
2023-05-26T08:54:51.177Z,45.16
2023-05-26T08:57:19.897Z,45.28
2023-05-26T08:59:48.090Z,44.28
2023-05-26T09:02:15.070Z,44.08
2023-05-26T09:04:41.877Z,43.17
2023-05-26T09:07:24.651Z,42.09
2023-05-26T09:09:54.761Z,41.70
2023-05-26T09:12:21.668Z,42.95
2023-05-26T09:14:48.582Z,40.22
2023-05-26T09:17:15.565Z,39.34
2023-05-26T09:19:42.778Z,38.86
2023-05-26T09:22:11.924Z,38.64
2023-05-26T09:24:51.866Z,39.75
2023-05-26T09:27:20.158Z,40.47
2023-05-26T09:29:53.894Z,39.19
2023-05-26T09:32:24.748Z,40.46
2023-05-26T09:34:52.663Z,39.65
2023-05-26T09:37:19.645Z,40.20
2023-05-26T09:39:46.707Z,37.61
2023-05-26T09:42:13.611Z,39.60
2023-05-26T09:44:40.818Z,38.37
2023-05-26T09:47:07.936Z,37.97
2023-05-26T09:49:34.883Z,39.17
2023-05-26T09:52:13.115Z,38.94
2023-05-26T09:54:41.350Z,39.59
2023-05-26T09:57:15.372Z,38.30
2023-05-26T09:59:43.192Z,38.00
2023-05-26T10:02:23.638Z,37.58
2023-05-26T10:04:51.542Z,38.18
2023-05-26T10:07:20.268Z,36.76
2023-05-26T10:09:55.158Z,37.56
2023-05-26T10:12:28.192Z,36.90
2023-05-26T10:14:55.751Z,38.69
2023-05-26T10:17:26.382Z,38.39
2023-05-26T10:19:55.332Z,37.20
2023-05-26T10:22:36.915Z,35.46
2023-05-26T10:25:19.455Z,37.13
2023-05-26T10:27:55.411Z,35.76
2023-05-26T10:30:23.678Z,37.11
2023-05-26T10:32:53.618Z,35.95
2023-05-26T10:35:21.486Z,36.84
2023-05-26T10:37:56.026Z,36.50
2023-05-26T10:40:35.559Z,35.70
2023-05-26T10:43:06.732Z,36.05
2023-05-26T10:45:34.482Z,37.56
2023-05-26T10:48:13.487Z,36.32
2023-05-26T10:50:55.631Z,37.60
2023-05-26T10:53:23.530Z,36.43
2023-05-26T10:55:55.722Z,34.54
2023-05-26T10:58:47.352Z,34.10
2023-05-26T11:01:35.996Z,34.53
2023-05-26T11:04:10.324Z,37.09
2023-05-26T11:06:58.019Z,35.36
2023-05-26T11:09:27.170Z,36.42
2023-05-26T11:11:58.829Z,34.28
2023-05-26T11:14:27.799Z,34.37
2023-05-26T11:16:59.797Z,34.77
2023-05-26T11:19:39.981Z,34.99
2023-05-26T11:22:08.963Z,34.35
2023-05-26T11:24:36.613Z,34.97
2023-05-26T11:27:04.964Z,33.58
2023-05-26T11:29:32.991Z,34.01
2023-05-26T11:32:00.234Z,33.98
2023-05-26T11:34:27.398Z,34.18
2023-05-26T11:36:55.373Z,34.02
2023-05-26T11:39:23.507Z,32.94
2023-05-26T11:41:50.927Z,35.08
2023-05-26T11:44:17.906Z,33.72
2023-05-26T11:46:48.270Z,34.19
2023-05-26T11:49:16.536Z,33.92
2023-05-26T11:51:48.116Z,32.50
2023-05-26T11:54:16.247Z,30.37
2023-05-26T11:56:45.046Z,31.45
2023-05-26T11:59:17.687Z,30.94
2023-05-26T12:01:45.889Z,32.06
2023-05-26T12:04:13.549Z,31.72
2023-05-26T12:06:44.853Z,31.54
2023-05-26T12:09:22.770Z,31.11
2023-05-26T12:11:51.981Z,32.78
2023-05-26T12:14:19.090Z,30.51
2023-05-26T12:16:48.036Z,31.17
2023-05-26T12:19:17.743Z,31.57
2023-05-26T12:21:49.352Z,30.11
2023-05-26T12:24:30.261Z,32.18
2023-05-26T12:26:57.525Z,32.97
2023-05-26T12:29:24.348Z,31.66
2023-05-26T12:31:53.288Z,31.12
2023-05-26T12:34:21.074Z,31.20
2023-05-26T12:36:48.406Z,30.97
2023-05-26T12:39:16.087Z,30.95
2023-05-26T12:41:43.516Z,29.52
2023-05-26T12:44:10.470Z,30.63
2023-05-26T12:46:40.585Z,30.26
2023-05-26T12:49:11.474Z,30.49
2023-05-26T12:51:39.721Z,30.90
2023-05-26T12:54:07.811Z,32.13
2023-05-26T12:56:34.802Z,31.41
2023-05-26T12:59:10.526Z,31.56
2023-05-26T13:01:44.843Z,30.04
2023-05-26T13:04:11.903Z,32.07
2023-05-26T13:06:38.818Z,32.04
2023-05-26T13:09:06.014Z,32.02
2023-05-26T13:11:32.858Z,33.10
2023-05-26T13:13:59.718Z,31.75
2023-05-26T13:16:27.092Z,31.62
2023-05-26T13:18:54.200Z,30.27
2023-05-26T13:21:21.085Z,30.18
2023-05-26T13:23:48.164Z,31.03
2023-05-26T13:26:14.973Z,31.41
2023-05-26T13:28:41.798Z,31.80
2023-05-26T13:31:08.942Z,31.82
2023-05-26T13:33:35.825Z,31.84
2023-05-26T13:36:02.650Z,32.61
2023-05-26T13:38:29.399Z,30.48
2023-05-26T13:41:00.157Z,32.96
2023-05-26T13:43:27.461Z,30.52
2023-05-26T13:45:55.084Z,31.47
2023-05-26T13:48:25.615Z,32.25
2023-05-26T13:50:53.596Z,32.11
2023-05-26T13:53:20.640Z,31.81
2023-05-26T13:55:47.429Z,32.54
2023-05-26T13:58:14.930Z,33.61
2023-05-26T14:00:41.971Z,32.29
2023-05-26T14:03:08.870Z,32.44
2023-05-26T14:05:35.937Z,32.78
2023-05-26T14:08:07.750Z,32.93
2023-05-26T14:10:35.284Z,33.11
2023-05-26T14:13:02.471Z,33.51
2023-05-26T14:15:30.728Z,32.20
2023-05-26T14:18:07.466Z,31.98
2023-05-26T14:22:10.222Z,33.39
2023-05-26T14:23:24.261Z,33.28
2023-05-26T14:25:53.767Z,33.72
2023-05-26T14:28:20.545Z,32.69
2023-05-26T14:30:47.770Z,32.08
2023-05-26T14:33:14.775Z,32.94
2023-05-26T14:35:42.169Z,32.90
2023-05-26T14:38:09.010Z,32.91
2023-05-26T14:40:38.121Z,32.07
2023-05-26T14:43:05.213Z,32.34
2023-05-26T14:45:32.587Z,33.63
2023-05-26T14:47:59.576Z,34.12
2023-05-26T14:50:26.648Z,34.03
2023-05-26T14:52:53.458Z,33.07
2023-05-26T14:55:21.515Z,33.57
2023-05-26T14:57:48.300Z,34.13
2023-05-26T15:00:15.878Z,33.97
2023-05-26T15:02:43.007Z,33.77
2023-05-26T15:05:10.394Z,32.73
2023-05-26T15:07:38.045Z,33.78
2023-05-26T15:10:06.157Z,34.72
2023-05-26T15:12:36.455Z,34.58
2023-05-26T15:15:03.582Z,33.87
2023-05-26T15:17:30.747Z,34.70
2023-05-26T15:19:58.894Z,34.26
2023-05-26T15:22:25.989Z,34.84
2023-05-26T15:24:53.061Z,34.56
2023-05-26T15:27:20.113Z,35.69
2023-05-26T15:29:47.065Z,35.36
2023-05-26T15:32:17.015Z,34.84
2023-05-26T15:34:45.224Z,34.88
2023-05-26T15:37:12.192Z,35.73
2023-05-26T15:39:39.158Z,35.19
2023-05-26T15:42:07.521Z,35.17
2023-05-26T15:44:35.585Z,35.27
2023-05-26T15:47:02.810Z,36.20
2023-05-26T15:49:29.817Z,35.12
2023-05-26T15:51:56.746Z,35.26
2023-05-26T15:54:23.714Z,35.05
2023-05-26T15:56:50.744Z,35.86
2023-05-26T15:59:18.172Z,35.42
2023-05-26T16:01:45.021Z,35.49
2023-05-26T16:04:12.136Z,35.30
2023-05-26T16:06:39.055Z,34.14
2023-05-26T16:09:06.466Z,35.26
2023-05-26T16:11:34.302Z,34.66
2023-05-26T16:14:01.282Z,35.14
2023-05-26T16:16:28.668Z,35.33
2023-05-26T16:18:56.053Z,35.87
2023-05-26T16:21:22.906Z,35.81
2023-05-26T16:23:49.994Z,36.19
2023-05-26T16:26:16.978Z,36.05
2023-05-26T16:28:43.852Z,36.47
2023-05-26T16:31:11.183Z,36.17
2023-05-26T16:33:38.188Z,36.58
2023-05-26T16:36:05.222Z,36.72
2023-05-26T16:38:32.306Z,36.98
2023-05-26T16:40:59.468Z,37.31
2023-05-26T16:43:46.907Z,37.77
2023-05-26T16:46:13.258Z,37.82
2023-05-26T16:48:40.279Z,37.01
2023-05-26T16:51:07.123Z,37.51
2023-05-26T16:53:33.973Z,38.34
2023-05-26T16:56:01.546Z,37.78
2023-05-26T16:58:28.863Z,37.85
2023-05-26T17:00:55.775Z,37.65
2023-05-26T17:03:22.783Z,37.58
2023-05-26T17:05:49.618Z,39.04
2023-05-26T17:08:16.504Z,38.41
2023-05-26T17:10:45.483Z,38.66
2023-05-26T17:13:12.659Z,37.52
2023-05-26T17:15:40.197Z,37.99
2023-05-26T17:18:07.205Z,37.37
2023-05-26T17:20:34.916Z,37.86
2023-05-26T17:23:02.707Z,38.81
2023-05-26T17:25:29.601Z,38.23
2023-05-26T17:27:57.048Z,38.11
2023-05-26T17:30:24.113Z,38.04
2023-05-26T17:32:51.313Z,38.66
2023-05-26T17:35:18.394Z,37.80
2023-05-26T17:37:45.278Z,38.44
2023-05-26T17:40:12.407Z,39.04
2023-05-26T17:42:40.215Z,39.16
2023-05-26T17:45:07.892Z,41.31
2023-05-26T17:47:34.784Z,46.24
2023-05-26T17:50:01.716Z,44.43
2023-05-26T17:52:28.505Z,44.37
2023-05-26T17:54:58.598Z,48.24
2023-05-26T17:57:25.483Z,47.20
